Time;durP1;ratioP1;P1;durP2;ratioP2;P2;SDS_P1;SDS_P2;PMS_P1;PMS_P2;Temp;Humidity;BMP_temperature;BMP_pressure;BME280_temperature;BME280_humidity;BME280_pressure;Samples;Min_cycle;Max_cycle;Signal;HPM_P1;HPM_P2
2024/02/03 00:00:33;;;;;;;26.73;14.48;;;9.90;99.90;;;;;;4897547;29;20044;-73
2024/02/03 00:03:01;;;;;;;24.85;14.13;;;9.90;99.90;;;;;;4896330;29;20509;-73
2024/02/03 00:05:28;;;;;;;22.02;13.10;;;9.90;99.90;;;;;;4878518;29;20045;-74
2024/02/03 00:07:55;;;;;;;21.73;12.75;;;9.90;99.90;;;;;;4880936;29;20485;-73
2024/02/03 00:10:22;;;;;;;19.52;11.98;;;9.90;99.90;;;;;;4896380;29;20860;-73
2024/02/03 00:12:49;;;;;;;21.05;13.07;;;10.00;99.90;;;;;;4891328;29;20071;-74
2024/02/03 00:15:17;;;;;;;23.00;12.98;;;10.00;99.90;;;;;;4880788;29;20048;-74
2024/02/03 00:17:44;;;;;;;19.85;12.13;;;10.00;99.90;;;;;;4897572;29;20044;-73
2024/02/03 00:20:12;;;;;;;22.63;12.70;;;10.00;99.90;;;;;;4896059;29;20050;-73
2024/02/03 00:22:39;;;;;;;20.20;12.65;;;10.00;99.90;;;;;;4896200;29;20218;-73
2024/02/03 00:25:06;;;;;;;25.33;13.48;;;10.00;99.90;;;;;;4890330;29;20037;-73
2024/02/03 00:27:33;;;;;;;22.40;12.82;;;10.00;99.90;;;;;;4880770;29;20056;-73
2024/02/03 00:30:00;;;;;;;22.77;13.90;;;10.00;99.90;;;;;;4877643;29;20140;-74
2024/02/03 00:32:28;;;;;;;21.10;12.75;;;10.00;99.90;;;;;;4895939;29;20075;-73
2024/02/03 00:34:56;;;;;;;23.58;13.88;;;10.00;99.90;;;;;;4880877;29;20521;-73
2024/02/03 00:37:23;;;;;;;24.85;14.40;;;10.00;99.90;;;;;;4896307;29;20053;-73
2024/02/03 00:39:50;;;;;;;22.08;13.52;;;10.00;99.90;;;;;;4896031;29;20040;-73
2024/02/03 00:42:18;;;;;;;23.25;13.57;;;10.00;99.90;;;;;;4895865;29;20044;-73
2024/02/03 00:44:45;;;;;;;23.23;13.82;;;10.00;99.90;;;;;;4897272;29;20045;-73
2024/02/03 00:47:13;;;;;;;22.40;13.48;;;10.00;99.90;;;;;;4880483;29;20052;-73
2024/02/03 00:49:40;;;;;;;23.65;14.10;;;10.00;99.90;;;;;;4896171;29;20044;-73
2024/02/03 00:52:07;;;;;;;25.10;14.20;;;10.00;99.90;;;;;;4896011;29;20051;-73
2024/02/03 00:54:34;;;;;;;22.58;14.18;;;10.00;99.90;;;;;;4895960;29;20127;-73
2024/02/03 00:57:01;;;;;;;21.50;13.55;;;10.00;99.90;;;;;;4880680;29;20498;-73
2024/02/03 00:59:29;;;;;;;20.48;12.35;;;10.00;99.90;;;;;;4897268;29;20052;-73
2024/02/03 01:01:56;;;;;;;19.95;11.85;;;10.00;99.90;;;;;;4880184;29;20048;-73
2024/02/03 01:04:23;;;;;;;16.60;11.10;;;10.00;99.90;;;;;;4896913;29;20068;-73
2024/02/03 01:06:54;;;;;;;19.52;11.65;;;10.00;99.90;;;;;;4880433;29;20053;-73
2024/02/03 01:09:21;;;;;;;20.08;12.80;;;10.00;99.90;;;;;;4895857;29;20064;-73
2024/02/03 01:11:48;;;;;;;18.90;11.52;;;10.00;99.90;;;;;;4897096;29;20497;-73
2024/02/03 01:14:15;;;;;;;20.63;12.27;;;10.00;99.90;;;;;;4895633;29;20064;-73
2024/02/03 01:16:44;;;;;;;22.92;13.32;;;10.00;99.90;;;;;;4881598;29;20063;-72
2024/02/03 01:19:12;;;;;;;19.85;12.40;;;10.00;99.90;;;;;;4900292;29;20076;-73
2024/02/03 01:21:39;;;;;;;21.08;11.82;;;10.00;99.90;;;;;;4883032;29;20485;-73
2024/02/03 01:24:06;;;;;;;21.00;12.90;;;9.90;99.90;;;;;;4899009;29;20048;-73
2024/02/03 01:26:33;;;;;;;18.95;11.30;;;9.90;99.90;;;;;;4899071;29;20119;-73
2024/02/03 01:29:00;;;;;;;20.98;12.85;;;9.90;99.90;;;;;;4898827;29;20497;-72
2024/02/03 01:31:27;;;;;;;19.10;11.52;;;9.90;99.90;;;;;;4898950;29;20056;-72
2024/02/03 01:33:54;;;;;;;22.77;13.43;;;9.90;99.90;;;;;;4883573;29;20036;-72
2024/02/03 01:36:21;;;;;;;21.73;12.15;;;9.90;99.90;;;;;;4898903;29;20059;-72
2024/02/03 01:38:51;;;;;;;18.38;12.27;;;9.90;99.90;;;;;;4895274;29;20455;-72
2024/02/03 01:41:18;;;;;;;18.92;12.80;;;9.90;99.90;;;;;;4865198;29;20396;-73
2024/02/03 01:43:46;;;;;;;21.77;12.43;;;10.00;99.90;;;;;;4898824;29;20048;-73
2024/02/03 01:46:14;;;;;;;17.70;10.75;;;10.00;99.90;;;;;;4898659;29;20100;-73
2024/02/03 01:48:41;;;;;;;17.75;10.73;;;10.00;99.90;;;;;;4898482;29;20108;-73
2024/02/03 01:51:09;;;;;;;20.23;12.20;;;10.00;99.90;;;;;;4883266;29;20048;-73
2024/02/03 01:53:37;;;;;;;19.40;10.85;;;10.00;99.90;;;;;;4899492;29;20569;-73
2024/02/03 01:56:05;;;;;;;17.73;10.43;;;10.00;99.90;;;;;;4898467;29;20045;-72
2024/02/03 01:58:32;;;;;;;16.42;9.30;;;10.10;99.90;;;;;;4883170;29;20049;-73
2024/02/03 02:01:00;;;;;;;16.58;9.65;;;10.10;99.90;;;;;;4867237;29;20053;-73
2024/02/03 02:03:27;;;;;;;13.93;9.13;;;10.10;99.90;;;;;;4883028;29;20047;-73
2024/02/03 02:05:54;;;;;;;21.60;10.57;;;10.10;99.90;;;;;;4885388;29;20152;-73
2024/02/03 02:08:32;;;;;;;17.60;10.10;;;10.10;99.90;;;;;;4898499;29;20068;-73
2024/02/03 02:10:59;;;;;;;16.38;9.35;;;10.10;99.90;;;;;;4897289;29;20111;-73
2024/02/03 02:13:26;;;;;;;13.75;8.38;;;10.10;99.90;;;;;;4882556;29;20071;-73
2024/02/03 02:15:53;;;;;;;12.73;8.15;;;10.10;99.90;;;;;;4897826;29;20056;-73
2024/02/03 02:18:21;;;;;;;13.25;8.75;;;10.10;99.90;;;;;;4899421;29;20048;-73
2024/02/03 02:20:48;;;;;;;12.32;8.48;;;10.00;99.90;;;;;;4899312;29;20083;-73
2024/02/03 02:23:15;;;;;;;15.07;9.07;;;10.00;99.90;;;;;;4876458;29;20588;-73
2024/02/03 02:25:42;;;;;;;17.98;9.98;;;9.90;99.90;;;;;;4899187;29;20048;-72
2024/02/03 02:28:09;;;;;;;17.45;9.48;;;9.90;99.90;;;;;;4897239;29;20403;-73
2024/02/03 02:30:36;;;;;;;15.85;8.10;;;9.90;99.90;;;;;;4899040;29;20100;-72
2024/02/03 02:33:03;;;;;;;14.30;7.57;;;9.90;99.90;;;;;;4897790;29;20446;-73
2024/02/03 02:35:30;;;;;;;16.80;9.23;;;10.00;99.90;;;;;;4882377;29;20049;-73
2024/02/03 02:37:57;;;;;;;15.55;8.02;;;10.00;99.90;;;;;;4882166;29;20057;-74
2024/02/03 02:40:24;;;;;;;12.27;8.43;;;9.90;99.90;;;;;;4897711;29;20045;-73
2024/02/03 02:42:51;;;;;;;12.40;8.07;;;9.90;99.90;;;;;;4897568;29;20037;-73
2024/02/03 02:45:19;;;;;;;13.38;8.18;;;9.80;99.90;;;;;;4897680;29;20454;-73
2024/02/03 02:47:46;;;;;;;13.98;7.28;;;9.80;99.90;;;;;;4897844;29;20048;-73
2024/02/03 02:50:13;;;;;;;13.38;8.02;;;9.80;99.90;;;;;;4897485;29;20052;-72
2024/02/03 02:52:40;;;;;;;15.23;8.88;;;9.80;99.90;;;;;;4897545;29;20056;-72
2024/02/03 02:55:07;;;;;;;10.30;6.35;;;9.70;99.90;;;;;;4879304;29;20049;-73
2024/02/03 02:57:34;;;;;;;14.73;7.28;;;9.70;99.90;;;;;;4898726;29;20493;-73
2024/02/03 03:00:02;;;;;;;11.15;7.20;;;9.70;99.90;;;;;;4901887;29;20049;-73
2024/02/03 03:02:29;;;;;;;13.18;6.97;;;9.80;99.90;;;;;;4898690;29;20040;-73
2024/02/03 03:04:56;;;;;;;9.52;6.22;;;9.80;99.90;;;;;;4881293;29;20087;-74
2024/02/03 03:07:23;;;;;;;10.15;6.53;;;9.70;99.90;;;;;;4882349;29;20032;-74
2024/02/03 03:09:51;;;;;;;13.48;6.18;;;9.70;99.90;;;;;;4898464;29;20113;-73
2024/02/03 03:12:18;;;;;;;12.40;6.97;;;9.70;99.90;;;;;;4880624;29;20050;-73
2024/02/03 03:14:45;;;;;;;11.88;6.35;;;9.70;99.90;;;;;;4897319;29;20490;-73
2024/02/03 03:17:12;;;;;;;11.40;6.35;;;9.70;99.90;;;;;;4880072;29;20502;-73
2024/02/03 03:19:40;;;;;;;15.10;7.82;;;9.70;99.90;;;;;;4881651;29;20135;-73
2024/02/03 03:22:08;;;;;;;14.05;7.35;;;9.70;99.90;;;;;;4897115;29;20083;-73
2024/02/03 03:24:35;;;;;;;9.85;6.90;;;9.60;99.90;;;;;;4881397;29;20045;-73
2024/02/03 03:27:02;;;;;;;10.77;7.57;;;9.70;99.90;;;;;;4896871;29;20044;-73
2024/02/03 03:29:29;;;;;;;17.25;8.40;;;9.70;99.90;;;;;;4881260;29;20048;-73
2024/02/03 03:31:55;;;;;;;9.98;6.40;;;9.60;99.90;;;;;;4896810;29;20037;-73
2024/02/03 03:34:22;;;;;;;12.73;6.88;;;9.60;99.90;;;;;;4881360;29;20136;-73
2024/02/03 03:36:50;;;;;;;14.77;7.63;;;9.60;99.90;;;;;;4896944;29;20051;-73
2024/02/03 03:39:17;;;;;;;14.32;7.32;;;9.60;99.90;;;;;;4896718;29;20071;-73
2024/02/03 03:41:44;;;;;;;12.52;7.63;;;9.60;99.90;;;;;;4896510;29;20052;-73
2024/02/03 03:44:11;;;;;;;13.82;8.13;;;9.70;99.90;;;;;;4881365;29;20040;-73
2024/02/03 03:46:38;;;;;;;13.85;8.23;;;9.70;99.90;;;;;;4896502;29;20048;-73
2024/02/03 03:49:05;;;;;;;18.15;8.50;;;9.60;99.90;;;;;;4881212;29;20492;-73
2024/02/03 03:51:33;;;;;;;11.68;7.72;;;9.70;99.90;;;;;;4897698;29;20076;-73
2024/02/03 03:54:00;;;;;;;12.82;8.68;;;9.70;99.90;;;;;;4880844;29;20040;-73
2024/02/03 03:56:27;;;;;;;14.23;8.93;;;9.70;99.90;;;;;;4896590;29;20044;-73
2024/02/03 03:58:54;;;;;;;13.07;8.02;;;9.70;99.90;;;;;;4896450;29;20044;-73
2024/02/03 04:01:21;;;;;;;16.63;9.05;;;9.70;99.90;;;;;;4877907;29;20161;-73
2024/02/03 04:03:48;;;;;;;11.38;8.18;;;9.70;99.90;;;;;;4894644;29;20044;-73
2024/02/03 04:06:15;;;;;;;15.65;9.57;;;9.70;99.90;;;;;;4896462;29;20095;-73
2024/02/03 04:08:42;;;;;;;16.05;10.73;;;9.70;99.90;;;;;;4896429;29;20045;-73
2024/02/03 04:11:09;;;;;;;14.52;9.18;;;9.70;99.90;;;;;;4865722;29;20438;-73
2024/02/03 04:13:39;;;;;;;16.80;10.25;;;9.70;99.90;;;;;;4897556;29;20052;-73
2024/02/03 04:16:06;;;;;;;16.17;9.80;;;9.70;99.90;;;;;;4896167;29;20139;-73
2024/02/03 04:18:33;;;;;;;12.70;8.77;;;9.70;99.90;;;;;;4897518;29;20044;-73
2024/02/03 04:21:01;;;;;;;17.40;9.48;;;9.70;99.90;;;;;;4896089;29;20028;-73
2024/02/03 04:23:28;;;;;;;12.70;8.77;;;9.80;99.90;;;;;;4896240;29;20135;-73
2024/02/03 04:25:55;;;;;;;15.13;8.20;;;9.70;99.90;;;;;;4896094;29;20502;-73
2024/02/03 04:28:25;;;;;;;17.00;8.80;;;9.80;99.90;;;;;;4897560;29;20489;-73
2024/02/03 04:30:55;;;;;;;15.07;8.35;;;9.80;99.90;;;;;;4897381;29;20486;-73
2024/02/03 04:33:22;;;;;;;16.02;7.78;;;9.80;99.90;;;;;;4897273;29;20053;-73
2024/02/03 04:35:49;;;;;;;13.38;7.72;;;9.80;99.90;;;;;;4896136;29;20044;-73
2024/02/03 04:38:16;;;;;;;12.82;7.35;;;9.80;99.90;;;;;;4879709;29;20509;-73
2024/02/03 04:40:43;;;;;;;13.05;8.00;;;9.80;99.90;;;;;;4865240;29;20142;-73
2024/02/03 04:43:10;;;;;;;14.65;8.52;;;9.80;99.90;;;;;;4880633;29;20414;-73
2024/02/03 04:45:37;;;;;;;15.82;8.27;;;9.80;99.90;;;;;;4878626;29;20048;-73
2024/02/03 04:48:04;;;;;;;13.20;7.25;;;9.80;99.90;;;;;;4880681;29;20119;-73
2024/02/03 04:50:33;;;;;;;13.48;6.95;;;9.80;99.90;;;;;;4897162;29;20064;-73
2024/02/03 04:53:00;;;;;;;9.50;6.20;;;9.80;99.90;;;;;;4900499;29;20120;-73
2024/02/03 04:55:27;;;;;;;11.52;6.13;;;9.80;99.90;;;;;;4883520;29;20040;-73
2024/02/03 04:57:54;;;;;;;9.82;6.22;;;9.80;99.90;;;;;;4900699;29;20048;-73
2024/02/03 05:00:21;;;;;;;10.30;6.13;;;9.80;99.90;;;;;;4899516;29;20052;-74
2024/02/03 05:02:48;;;;;;;11.35;6.38;;;9.80;99.90;;;;;;4899521;29;20056;-73
2024/02/03 05:05:15;;;;;;;11.27;6.03;;;9.80;99.90;;;;;;4899547;29;20055;-73
2024/02/03 05:07:46;;;;;;;8.73;6.38;;;9.80;99.90;;;;;;4878162;29;20052;-73
2024/02/03 05:10:13;;;;;;;9.68;5.95;;;9.90;99.90;;;;;;4893651;29;20044;-73
2024/02/03 05:12:40;;;;;;;12.35;6.82;;;9.90;99.90;;;;;;4883747;29;20071;-73
2024/02/03 05:15:08;;;;;;;9.60;6.47;;;9.90;99.90;;;;;;4894387;29;20585;-73
2024/02/03 05:17:35;;;;;;;9.70;6.55;;;9.90;99.90;;;;;;4881241;29;20048;-74
2024/02/03 05:20:05;;;;;;;12.80;7.80;;;9.90;99.90;;;;;;4880565;29;20044;-73
2024/02/03 05:22:32;;;;;;;10.95;7.28;;;9.90;99.90;;;;;;4865009;29;20064;-73
2024/02/03 05:24:59;;;;;;;10.95;6.03;;;9.90;99.90;;;;;;4865013;29;20410;-73
2024/02/03 05:27:26;;;;;;;8.38;6.05;;;9.90;99.90;;;;;;4883019;29;20064;-73
2024/02/03 05:29:53;;;;;;;10.63;5.95;;;9.90;99.90;;;;;;4883806;29;20048;-73
2024/02/03 05:32:20;;;;;;;12.00;5.50;;;9.90;99.90;;;;;;4899060;29;20056;-73
2024/02/03 05:34:47;;;;;;;12.30;5.57;;;9.90;99.90;;;;;;4883322;29;20053;-73
2024/02/03 05:37:15;;;;;;;14.45;6.18;;;9.90;99.90;;;;;;4898927;29;20593;-73
2024/02/03 05:39:44;;;;;;;11.77;6.53;;;9.90;99.90;;;;;;4898972;29;20083;-73
2024/02/03 05:42:11;;;;;;;11.63;6.28;;;9.90;99.90;;;;;;4883499;29;20093;-73
2024/02/03 05:44:38;;;;;;;17.02;7.45;;;9.90;99.90;;;;;;4880236;29;20124;-73
2024/02/03 05:47:08;;;;;;;7.95;5.22;;;9.90;99.90;;;;;;4881637;29;20470;-73
2024/02/03 05:49:35;;;;;;;11.43;5.80;;;9.90;99.90;;;;;;4883272;29;20044;-73
2024/02/03 05:52:03;;;;;;;13.15;7.00;;;10.00;99.90;;;;;;4882784;29;20051;-73
2024/02/03 05:54:30;;;;;;;10.25;6.07;;;9.90;99.90;;;;;;4899815;29;20052;-73
2024/02/03 05:56:57;;;;;;;11.27;6.97;;;10.00;99.90;;;;;;4882974;29;20064;-74
2024/02/03 05:59:24;;;;;;;10.88;6.53;;;10.00;99.90;;;;;;4883236;29;20128;-73
2024/02/03 06:02:04;;;;;;;12.07;5.85;;;10.00;99.90;;;;;;4884415;29;20548;-73
2024/02/03 06:04:31;;;;;;;14.23;6.55;;;10.00;99.90;;;;;;4897636;29;20041;-74
2024/02/03 06:06:58;;;;;;;12.02;6.00;;;10.00;99.90;;;;;;4882957;29;20045;-73
2024/02/03 06:09:25;;;;;;;9.60;6.13;;;10.00;99.90;;;;;;4896731;29;20085;-73
2024/02/03 06:11:53;;;;;;;10.52;5.50;;;10.00;99.90;;;;;;4882982;29;20050;-74
2024/02/03 06:14:20;;;;;;;11.13;5.40;;;10.00;99.90;;;;;;4899145;29;20052;-74
2024/02/03 06:16:50;;;;;;;11.50;5.95;;;10.00;99.90;;;;;;4883237;29;20075;-73
2024/02/03 06:19:17;;;;;;;11.45;4.65;;;10.00;99.90;;;;;;4897942;29;20415;-73
2024/02/03 06:21:44;;;;;;;12.25;5.30;;;10.00;99.90;;;;;;4882619;29;20040;-73
2024/02/03 06:24:11;;;;;;;10.57;5.05;;;10.10;99.90;;;;;;4882581;29;20037;-73
2024/02/03 06:26:38;;;;;;;10.90;5.43;;;10.00;99.90;;;;;;4882585;29;20068;-73
2024/02/03 06:29:10;;;;;;;8.63;4.80;;;10.10;99.90;;;;;;4897970;29;20041;-73
2024/02/03 06:31:37;;;;;;;9.75;5.05;;;10.10;99.90;;;;;;4882840;29;20059;-74
2024/02/03 06:34:04;;;;;;;10.02;4.60;;;10.10;99.90;;;;;;4882467;29;20045;-73
2024/02/03 06:36:32;;;;;;;13.25;4.50;;;10.10;99.90;;;;;;4898902;29;20525;-74
2024/02/03 06:38:59;;;;;;;7.20;4.43;;;10.10;99.90;;;;;;4897896;29;20119;-73
2024/02/03 06:41:26;;;;;;;11.82;4.80;;;10.10;99.90;;;;;;4882362;29;20109;-73
2024/02/03 06:43:53;;;;;;;8.18;4.53;;;10.10;99.90;;;;;;4897665;29;20081;-73
2024/02/03 06:46:20;;;;;;;9.25;4.45;;;10.10;99.90;;;;;;4897549;29;20112;-73
2024/02/03 06:48:47;;;;;;;6.50;4.00;;;10.20;99.90;;;;;;4882318;29;20044;-73
2024/02/03 06:51:14;;;;;;;8.25;3.85;;;10.10;99.90;;;;;;4882107;29;20044;-73
2024/02/03 06:53:41;;;;;;;7.93;4.25;;;10.10;99.90;;;;;;4899952;29;20478;-74
2024/02/03 06:56:09;;;;;;;9.00;4.07;;;10.10;99.90;;;;;;4898852;29;20394;-74
2024/02/03 06:58:36;;;;;;;9.05;4.68;;;10.10;99.90;;;;;;4898258;29;20052;-73
2024/02/03 07:01:03;;;;;;;7.38;3.05;;;10.10;99.90;;;;;;4898844;29;20037;-74
2024/02/03 07:03:31;;;;;;;7.43;3.30;;;10.10;99.90;;;;;;4898648;29;20475;-74
2024/02/03 07:05:59;;;;;;;7.93;3.75;;;10.10;99.90;;;;;;4897110;29;20096;-73
2024/02/03 07:08:26;;;;;;;10.02;4.07;;;10.10;99.90;;;;;;4878895;29;20049;-74
2024/02/03 07:10:52;;;;;;;7.47;3.28;;;10.20;99.90;;;;;;4897159;29;20037;-73
2024/02/03 07:13:22;;;;;;;7.68;3.50;;;10.20;99.90;;;;;;4897162;29;20532;-73
2024/02/03 07:15:50;;;;;;;9.02;3.70;;;10.20;99.90;;;;;;4881415;29;20157;-73
2024/02/03 07:18:18;;;;;;;8.35;3.53;;;10.20;99.90;;;;;;4897368;29;20040;-73
2024/02/03 07:20:45;;;;;;;7.05;3.42;;;10.20;99.90;;;;;;4875437;29;20049;-72
2024/02/03 07:23:13;;;;;;;8.18;3.50;;;10.20;99.90;;;;;;4890992;29;20036;-72
2024/02/03 07:25:39;;;;;;;10.90;3.53;;;10.20;99.90;;;;;;4898028;29;20041;-73
2024/02/03 07:28:07;;;;;;;8.00;3.50;;;10.20;99.90;;;;;;4881108;29;20064;-73
2024/02/03 07:30:34;;;;;;;7.47;3.08;;;10.20;99.90;;;;;;4881212;29;20044;-73
2024/02/03 07:33:06;;;;;;;8.48;2.80;;;10.20;99.90;;;;;;4865870;29;20424;-73
2024/02/03 07:35:34;;;;;;;5.35;2.70;;;10.20;99.90;;;;;;4896887;29;20063;-73
2024/02/03 07:38:02;;;;;;;5.05;2.22;;;10.10;99.90;;;;;;4897910;29;20051;-73
2024/02/03 07:40:29;;;;;;;10.95;3.28;;;10.10;99.90;;;;;;4881449;29;20044;-73
2024/02/03 07:42:56;;;;;;;9.30;4.57;;;10.10;99.90;;;;;;4886885;29;20056;-73
2024/02/03 07:45:23;;;;;;;10.10;4.82;;;10.10;99.90;;;;;;4896457;29;20472;-73
2024/02/03 07:47:50;;;;;;;11.30;4.93;;;10.00;99.90;;;;;;4896633;29;20096;-72
2024/02/03 07:50:17;;;;;;;14.38;5.57;;;10.00;99.90;;;;;;4880894;29;20040;-72
2024/02/03 07:52:45;;;;;;;13.43;5.47;;;9.90;99.90;;;;;;4877873;29;20060;-73
2024/02/03 07:55:12;;;;;;;13.18;5.60;;;9.90;99.90;;;;;;4894925;29;20053;-73
2024/02/03 07:57:39;;;;;;;11.07;5.78;;;9.90;99.90;;;;;;4896569;29;20045;-73
2024/02/03 08:00:06;;;;;;;11.90;6.20;;;9.80;99.90;;;;;;4881128;29;20052;-73
2024/02/03 08:02:34;;;;;;;9.18;5.45;;;9.80;99.90;;;;;;4877763;29;20049;-73
2024/02/03 08:05:00;;;;;;;15.23;7.05;;;9.80;99.90;;;;;;4878711;29;20458;-73
2024/02/03 08:07:28;;;;;;;12.05;7.03;;;9.80;99.90;;;;;;4896274;29;20405;-73
2024/02/03 08:09:56;;;;;;;14.18;6.72;;;9.80;99.90;;;;;;4896732;29;20056;-79
2024/02/03 08:12:23;;;;;;;13.05;6.60;;;9.80;99.90;;;;;;4898107;29;20501;-78
2024/02/03 08:14:51;;;;;;;13.95;7.13;;;9.80;99.90;;;;;;4897016;29;20056;-78
2024/02/03 08:17:18;;;;;;;14.40;7.22;;;9.80;99.90;;;;;;4898158;29;20073;-78
2024/02/03 08:19:45;;;;;;;15.02;7.18;;;9.80;99.90;;;;;;4897962;29;20045;-78
2024/02/03 08:22:12;;;;;;;16.42;7.68;;;9.80;99.90;;;;;;4897008;29;20040;-78
2024/02/03 08:24:39;;;;;;;18.05;9.15;;;9.90;99.90;;;;;;4881214;29;20091;-78
2024/02/03 08:27:06;;;;;;;19.00;8.13;;;9.90;99.90;;;;;;4898591;29;20060;-79
2024/02/03 08:29:33;;;;;;;17.65;8.68;;;9.90;99.90;;;;;;4900526;29;20043;-78
2024/02/03 08:32:00;;;;;;;20.02;9.98;;;9.90;99.90;;;;;;4900492;29;20045;-79
2024/02/03 08:34:28;;;;;;;18.17;9.30;;;9.90;99.90;;;;;;4900461;29;20051;-79
2024/02/03 08:36:55;;;;;;;15.68;9.30;;;9.90;99.90;;;;;;4900567;29;20159;-79
2024/02/03 08:39:22;;;;;;;17.15;9.85;;;9.90;99.90;;;;;;4900441;29;20470;-79
2024/02/03 08:41:52;;;;;;;20.88;10.25;;;10.00;99.90;;;;;;4901416;29;20409;-79
2024/02/03 08:44:19;;;;;;;23.92;10.65;;;10.00;99.90;;;;;;4900202;29;20478;-79
2024/02/03 08:46:46;;;;;;;17.52;9.52;;;10.00;99.90;;;;;;4901395;29;20458;-79
2024/02/03 08:49:13;;;;;;;20.42;10.15;;;10.00;99.90;;;;;;4884493;29;20506;-79
2024/02/03 08:51:40;;;;;;;19.13;9.75;;;10.00;99.90;;;;;;4900238;29;20040;-79
2024/02/03 08:54:08;;;;;;;16.98;8.65;;;10.00;99.90;;;;;;4887089;29;20055;-80
2024/02/03 08:56:35;;;;;;;20.23;9.13;;;10.00;99.90;;;;;;4901205;29;20131;-80
2024/02/03 08:59:02;;;;;;;19.75;9.00;;;10.10;99.90;;;;;;4898619;29;20112;-80
2024/02/03 09:01:29;;;;;;;17.88;9.27;;;10.10;99.90;;;;;;4899809;29;20087;-78
2024/02/03 09:03:56;;;;;;;16.75;9.82;;;10.20;99.90;;;;;;4899856;29;20119;-79
2024/02/03 09:06:23;;;;;;;18.60;9.63;;;10.20;99.90;;;;;;4884327;29;20096;-80
2024/02/03 09:08:51;;;;;;;16.17;8.40;;;10.30;99.90;;;;;;4901138;29;20068;-79
2024/02/03 09:11:18;;;;;;;12.20;8.50;;;10.30;99.90;;;;;;4881106;29;20059;-78
2024/02/03 09:13:45;;;;;;;15.30;8.30;;;10.40;99.90;;;;;;4899881;29;20478;-78
2024/02/03 09:16:12;;;;;;;15.43;8.23;;;10.40;99.90;;;;;;4900692;29;20060;-79
2024/02/03 09:18:39;;;;;;;14.50;7.70;;;10.40;99.90;;;;;;4883938;29;20052;-79
2024/02/03 09:21:10;;;;;;;13.48;8.30;;;10.40;99.90;;;;;;4883851;29;20048;-78
2024/02/03 09:23:39;;;;;;;11.05;6.95;;;10.40;99.90;;;;;;4884067;29;20501;-79
2024/02/03 09:26:08;;;;;;;13.20;7.68;;;10.50;99.90;;;;;;4900784;29;20047;-79
2024/02/03 09:28:36;;;;;;;15.38;7.97;;;10.60;99.90;;;;;;4899672;29;20067;-78
2024/02/03 09:31:03;;;;;;;15.23;8.07;;;10.60;99.90;;;;;;4900570;29;20044;-78
2024/02/03 09:33:31;;;;;;;15.30;8.63;;;10.70;99.90;;;;;;4899227;29;20120;-78
2024/02/03 09:35:58;;;;;;;15.73;7.13;;;10.70;99.90;;;;;;4883846;29;20045;-78
2024/02/03 09:38:25;;;;;;;18.00;8.20;;;10.70;99.90;;;;;;4900157;29;20049;-78
2024/02/03 09:40:54;;;;;;;15.10;6.60;;;10.70;99.90;;;;;;4900397;29;20055;-78
2024/02/03 09:43:25;;;;;;;14.15;8.38;;;10.70;99.90;;;;;;4900324;29;20116;-78
2024/02/03 09:45:53;;;;;;;12.80;6.25;;;10.70;99.90;;;;;;4899023;29;20045;-79
2024/02/03 09:48:22;;;;;;;15.48;8.68;;;10.70;99.90;;;;;;4899091;29;20053;-78
2024/02/03 09:50:50;;;;;;;14.00;8.00;;;10.70;99.90;;;;;;4865461;29;20049;-78
2024/02/03 09:53:17;;;;;;;15.80;7.90;;;10.70;99.90;;;;;;4894007;29;20037;-79
2024/02/03 09:55:44;;;;;;;14.00;8.43;;;10.70;99.90;;;;;;4884622;29;20056;-78
2024/02/03 09:58:11;;;;;;;19.33;8.23;;;10.80;99.90;;;;;;4899934;29;20040;-78
2024/02/03 10:00:38;;;;;;;17.00;8.82;;;10.80;99.90;;;;;;4900769;29;20083;-78
2024/02/03 10:03:15;;;;;;;17.63;8.85;;;10.80;99.90;;;;;;4883700;29;20045;-79
2024/02/03 10:05:43;;;;;;;17.42;9.65;;;10.80;99.90;;;;;;4900112;29;20478;-80
2024/02/03 10:08:10;;;;;;;14.55;7.80;;;10.80;99.90;;;;;;4898881;29;20076;-79
2024/02/03 10:10:38;;;;;;;12.60;7.72;;;10.80;99.90;;;;;;4867870;29;20439;-78
2024/02/03 10:13:10;;;;;;;16.33;7.72;;;10.90;99.90;;;;;;4883943;29;20131;-79
2024/02/03 10:15:38;;;;;;;10.75;6.78;;;10.90;99.90;;;;;;4898347;29;20080;-78
2024/02/03 10:18:08;;;;;;;13.20;7.18;;;10.90;99.90;;;;;;4882905;29;20489;-77
2024/02/03 10:20:36;;;;;;;13.63;6.85;;;10.90;99.90;;;;;;4898060;29;20056;-77
2024/02/03 10:23:03;;;;;;;9.65;6.45;;;11.00;99.90;;;;;;4882552;29;20045;-77
2024/02/03 10:25:33;;;;;;;10.88;5.78;;;11.00;99.90;;;;;;4882108;29;20056;-77
2024/02/03 10:28:07;;;;;;;17.42;7.63;;;10.90;99.90;;;;;;4882839;29;20059;-77
2024/02/03 10:30:36;;;;;;;13.07;8.00;;;11.00;99.90;;;;;;4897997;29;20053;-77
2024/02/03 10:33:05;;;;;;;14.35;6.50;;;11.00;99.90;;;;;;4898049;29;20489;-77
2024/02/03 10:35:37;;;;;;;10.95;6.90;;;11.00;99.90;;;;;;4898212;29;20395;-77
2024/02/03 10:38:04;;;;;;;15.68;7.65;;;11.00;99.90;;;;;;4879463;29;20505;-77
2024/02/03 10:40:34;;;;;;;16.23;6.55;;;11.00;99.90;;;;;;4872431;29;20084;-76
2024/02/03 10:43:03;;;;;;;11.65;6.20;;;11.00;99.90;;;;;;4875690;29;20048;-76
2024/02/03 10:45:31;;;;;;;15.10;6.05;;;11.00;99.90;;;;;;4872809;29;20048;-76
2024/02/03 10:48:02;;;;;;;11.93;5.85;;;11.00;99.90;;;;;;4899051;29;20045;-75
2024/02/03 10:50:43;;;;;;;13.70;6.30;;;11.00;99.90;;;;;;4898928;29;20072;-77
2024/02/03 10:53:17;;;;;;;14.82;6.75;;;11.00;99.90;;;;;;4898655;29;20059;-77
2024/02/03 10:55:55;;;;;;;12.35;5.32;;;11.00;99.90;;;;;;4898137;29;20185;-76
2024/02/03 10:58:27;;;;;;;13.32;6.18;;;11.00;99.90;;;;;;4899213;29;20051;-77
2024/02/03 11:00:56;;;;;;;13.32;6.72;;;11.00;99.90;;;;;;4882001;29;20053;-76
2024/02/03 11:03:23;;;;;;;14.23;6.75;;;11.00;99.90;;;;;;4897565;29;20096;-72
2024/02/03 11:05:55;;;;;;;11.05;5.68;;;11.00;99.90;;;;;;4881142;29;20049;-73
2024/02/03 11:08:22;;;;;;;15.03;6.40;;;10.90;99.90;;;;;;4898371;29;20117;-73
2024/02/03 11:10:50;;;;;;;10.35;5.82;;;10.90;99.90;;;;;;4897007;29;20861;-72
2024/02/03 11:13:22;;;;;;;11.30;6.13;;;10.80;99.90;;;;;;4896999;29;20525;-73
2024/02/03 11:15:58;;;;;;;13.95;5.82;;;10.70;99.90;;;;;;4898114;29;20060;-72
2024/02/03 11:18:27;;;;;;;10.30;5.97;;;10.60;99.90;;;;;;4896981;29;20048;-73
2024/02/03 11:21:04;;;;;;;9.32;5.65;;;10.60;99.90;;;;;;4897019;29;20454;-72
2024/02/03 11:23:35;;;;;;;12.07;6.03;;;10.50;99.90;;;;;;4897901;29;20044;-73
2024/02/03 11:26:03;;;;;;;17.05;7.35;;;10.50;99.90;;;;;;4896974;29;20037;-73
2024/02/03 11:28:34;;;;;;;13.90;6.20;;;10.50;99.90;;;;;;4897040;29;20040;-73
2024/02/03 11:31:01;;;;;;;12.75;6.05;;;10.50;99.90;;;;;;4881089;29;20413;-72
2024/02/03 11:33:45;;;;;;;11.88;6.63;;;10.50;99.90;;;;;;4896882;29;20405;-73
2024/02/03 11:36:13;;;;;;;12.07;5.95;;;10.50;99.90;;;;;;4896789;29;20052;-73
2024/02/03 11:38:47;;;;;;;9.88;5.60;;;10.50;99.90;;;;;;4881475;29;20482;-73
2024/02/03 11:41:15;;;;;;;9.35;5.88;;;10.50;99.90;;;;;;4896769;29;20044;-73
2024/02/03 11:43:43;;;;;;;13.10;6.55;;;10.50;99.90;;;;;;4881153;29;20045;-72
2024/02/03 11:46:11;;;;;;;14.05;6.75;;;10.40;99.90;;;;;;4897839;29;20092;-74
2024/02/03 11:48:39;;;;;;;11.38;5.68;;;10.40;99.90;;;;;;4897694;29;20055;-73
2024/02/03 11:51:09;;;;;;;12.38;5.82;;;10.40;99.90;;;;;;4878944;29;20045;-72
2024/02/03 11:53:36;;;;;;;7.18;4.70;;;10.40;99.90;;;;;;4896524;29;20081;-73
2024/02/03 11:56:03;;;;;;;11.95;5.18;;;10.40;99.90;;;;;;4896594;29;20087;-73
2024/02/03 11:58:30;;;;;;;12.45;5.40;;;10.40;99.90;;;;;;4881112;29;20093;-73
2024/02/03 12:01:05;;;;;;;11.05;5.22;;;10.40;99.90;;;;;;4896760;29;20131;-75
2024/02/03 12:03:32;;;;;;;8.82;5.07;;;10.40;99.90;;;;;;4896287;29;20085;-73
2024/02/03 12:06:00;;;;;;;7.97;4.22;;;10.40;99.90;;;;;;4881115;29;20048;-73
2024/02/03 12:08:27;;;;;;;6.95;4.60;;;10.40;99.90;;;;;;4877970;29;20403;-73
2024/02/03 12:10:54;;;;;;;8.82;3.80;;;10.40;99.90;;;;;;4875644;29;20044;-72
2024/02/03 12:13:21;;;;;;;8.88;3.70;;;10.40;99.90;;;;;;4897580;29;20383;-73
2024/02/03 12:15:50;;;;;;;8.95;4.43;;;10.40;99.90;;;;;;4897089;29;20060;-73
2024/02/03 12:18:18;;;;;;;9.95;4.50;;;10.40;99.90;;;;;;4896168;29;20051;-73
2024/02/03 12:20:45;;;;;;;7.28;4.10;;;10.40;99.90;;;;;;4880958;29;20064;-73
2024/02/03 12:23:12;;;;;;;10.32;3.53;;;10.40;99.90;;;;;;4877792;29;20053;-73
2024/02/03 12:25:47;;;;;;;7.80;3.72;;;10.40;99.90;;;;;;4884781;29;20045;-74
2024/02/03 12:28:14;;;;;;;6.72;3.78;;;10.40;99.90;;;;;;4895741;29;20045;-74
2024/02/03 12:30:42;;;;;;;7.55;3.88;;;10.40;99.90;;;;;;4880644;29;20056;-74
2024/02/03 12:33:09;;;;;;;9.50;3.95;;;10.40;99.90;;;;;;4879025;29;20072;-76
2024/02/03 12:35:37;;;;;;;8.43;4.25;;;10.40;99.90;;;;;;4878024;29;20073;-75
2024/02/03 12:38:04;;;;;;;9.68;4.60;;;10.40;99.90;;;;;;4880791;29;20156;-76
2024/02/03 12:40:31;;;;;;;8.82;4.70;;;10.40;99.90;;;;;;4883345;29;20048;-76
2024/02/03 12:42:58;;;;;;;9.73;4.57;;;10.40;99.90;;;;;;4880692;29;20048;-75